< < Back
Terminal Aerodrome Forecast


Current Version              Previous Versions:   1  2  3  4  5  6  7  8  9  

Terminal Aerodrome Forecast

777
FTUS44 KMRX 060807 AAA
TAFTYS
TAF AMD
KTYS 060807Z 0608/0706 26004KT P6SM SCT030
      TEMPO 0609/0612 4SM BR SCT002 BKN025 OVC035
     FM061330 23005KT P6SM BKN025
     FM061500 24008KT P6SM SCT040 SCT250
     FM070100 23004KT P6SM FEW050=

Latest METAR

936
SAUS80 KWBC 061000 RRA
MTRTYS
METAR KTYS 060953Z 28003KT 10SM OVC016 20/19 A3010 RMK AO2 SLP184
T02000189


USA.gov is the U.S. government's official web portal to all federal, state and local government web resources and services.